createdAt,value
2018-07-28T00:00:10.038Z,28.00
2018-07-28T00:02:39.084Z,27.90
2018-07-28T00:05:09.248Z,27.90
2018-07-28T00:07:38.490Z,27.90
2018-07-28T00:10:11.050Z,27.90
2018-07-28T00:12:40.239Z,27.80
2018-07-28T00:15:11.757Z,27.70
2018-07-28T00:17:41.975Z,27.70
2018-07-28T00:20:12.297Z,27.50
2018-07-28T00:22:41.544Z,27.50
2018-07-28T00:25:11.775Z,27.40
2018-07-28T00:27:40.963Z,27.30
2018-07-28T00:30:12.060Z,27.10
2018-07-28T00:32:41.404Z,27.10
2018-07-28T00:35:10.298Z,27.10
2018-07-28T00:37:40.344Z,27.10
2018-07-28T00:40:09.694Z,27.00
2018-07-28T00:42:39.165Z,27.00
2018-07-28T00:45:08.851Z,27.00
2018-07-28T00:50:07.396Z,26.90
2018-07-28T00:52:36.431Z,26.70
2018-07-28T00:55:05.839Z,26.70
2018-07-28T01:00:03.672Z,26.90
2018-07-28T01:02:32.757Z,26.80
2018-07-28T01:05:01.998Z,26.80
2018-07-28T01:07:31.263Z,26.80
2018-07-28T01:10:00.323Z,26.80
2018-07-28T01:12:29.434Z,26.70
2018-07-28T01:14:58.569Z,26.70
2018-07-28T01:17:27.759Z,26.70
2018-07-28T01:19:57.042Z,26.60
2018-07-28T01:22:31.855Z,26.60
2018-07-28T01:25:00.941Z,26.50
2018-07-28T01:27:30.403Z,26.50
2018-07-28T01:29:59.279Z,26.50
2018-07-28T01:32:30.360Z,26.40
2018-07-28T01:34:59.363Z,26.40
2018-07-28T01:37:28.470Z,26.40
2018-07-28T01:39:57.467Z,26.30
2018-07-28T01:42:30.637Z,26.30
2018-07-28T01:44:59.501Z,26.20
2018-07-28T01:47:28.510Z,26.20
2018-07-28T01:49:57.624Z,26.20
2018-07-28T01:52:26.911Z,26.10
2018-07-28T01:54:56.465Z,26.10
2018-07-28T01:57:25.383Z,26.00
2018-07-28T01:59:54.214Z,26.00
2018-07-28T02:02:23.020Z,26.00
2018-07-28T02:04:52.200Z,25.90
2018-07-28T02:07:21.162Z,25.80
2018-07-28T02:09:50.146Z,25.80
2018-07-28T02:12:19.051Z,25.80
2018-07-28T02:14:48.033Z,25.70
2018-07-28T02:17:17.037Z,25.50
2018-07-28T02:19:46.010Z,25.50
2018-07-28T02:22:15.244Z,25.60
2018-07-28T02:24:44.250Z,25.60
2018-07-28T02:27:13.378Z,25.50
2018-07-28T02:29:42.299Z,25.40
2018-07-28T02:32:11.099Z,25.30
2018-07-28T02:34:43.080Z,25.40
2018-07-28T02:37:12.165Z,25.40
2018-07-28T02:39:40.938Z,25.30
2018-07-28T02:42:09.939Z,25.30
2018-07-28T02:44:38.836Z,25.30
2018-07-28T02:47:07.965Z,25.10
2018-07-28T02:49:36.932Z,25.10
2018-07-28T02:52:05.990Z,25.10
2018-07-28T02:54:34.907Z,25.10
2018-07-28T02:57:03.801Z,25.10
2018-07-28T02:59:32.644Z,25.10
2018-07-28T03:04:29.680Z,25.00
2018-07-28T03:06:58.584Z,25.00
2018-07-28T03:09:27.425Z,25.00
2018-07-28T03:11:56.430Z,25.00
2018-07-28T03:14:30.791Z,24.90
2018-07-28T03:16:59.673Z,24.90
2018-07-28T03:19:28.533Z,24.80
2018-07-28T03:21:57.518Z,24.70
2018-07-28T03:24:26.658Z,24.70
2018-07-28T03:26:55.756Z,24.70
2018-07-28T03:29:24.609Z,24.60
2018-07-28T03:31:53.630Z,24.60
2018-07-28T03:34:22.511Z,24.70
2018-07-28T03:36:51.415Z,24.50
2018-07-28T03:39:20.377Z,24.20
2018-07-28T03:41:49.249Z,24.20
2018-07-28T03:44:18.265Z,24.30
2018-07-28T03:46:47.051Z,24.20
2018-07-28T03:49:16.196Z,24.30
2018-07-28T03:51:45.118Z,24.40
2018-07-28T03:54:20.407Z,24.30
2018-07-28T03:56:49.515Z,24.30
2018-07-28T03:59:18.364Z,24.30
2018-07-28T04:01:47.273Z,24.30
2018-07-28T04:04:16.376Z,24.10
2018-07-28T04:06:45.164Z,24.00
2018-07-28T04:09:14.023Z,24.00
2018-07-28T04:11:43.136Z,24.00
2018-07-28T04:14:12.110Z,24.10
2018-07-28T04:16:40.896Z,24.20
2018-07-28T04:19:09.999Z,24.10
2018-07-28T04:21:38.908Z,24.20
2018-07-28T04:24:07.816Z,24.10
2018-07-28T04:26:39.019Z,24.00
2018-07-28T04:29:07.849Z,24.10
2018-07-28T04:31:36.961Z,24.20
2018-07-28T04:34:06.042Z,24.30
2018-07-28T04:36:34.910Z,24.30
2018-07-28T04:39:04.956Z,24.40
2018-07-28T04:41:34.037Z,24.40
2018-07-28T04:44:02.986Z,24.50
2018-07-28T04:46:32.032Z,24.60
2018-07-28T04:49:01.044Z,24.70
2018-07-28T04:51:30.116Z,24.80
2018-07-28T04:53:58.997Z,24.90
2018-07-28T04:56:27.924Z,25.00
2018-07-28T04:58:57.017Z,25.20
2018-07-28T05:01:26.020Z,25.30
2018-07-28T05:03:55.209Z,25.40
2018-07-28T05:06:24.509Z,25.60
2018-07-28T05:08:53.495Z,25.70
2018-07-28T05:11:22.707Z,26.00
2018-07-28T05:13:52.197Z,26.10
2018-07-28T05:16:21.393Z,26.20
2018-07-28T05:18:50.317Z,26.40
2018-07-28T05:21:19.356Z,26.50
2018-07-28T05:23:48.483Z,26.70
2018-07-28T05:26:17.361Z,26.80
2018-07-28T05:28:48.470Z,27.00
2018-07-28T05:31:17.595Z,27.20
2018-07-28T05:33:46.493Z,27.30
2018-07-28T05:38:48.177Z,27.80
2018-07-28T05:41:17.194Z,28.10
2018-07-28T05:43:46.476Z,28.30
2018-07-28T05:48:43.950Z,28.40
2018-07-28T05:51:12.884Z,28.70
2018-07-28T05:53:41.907Z,28.70
2018-07-28T05:56:12.052Z,29.00
2018-07-28T05:58:42.058Z,29.10
2018-07-28T06:01:11.163Z,29.20
2018-07-28T06:03:40.355Z,29.60
2018-07-28T06:06:09.743Z,29.70
2018-07-28T06:08:38.605Z,30.10
2018-07-28T06:11:07.599Z,30.70
2018-07-28T06:13:37.736Z,31.20
2018-07-28T06:16:07.024Z,31.20
2018-07-28T06:18:35.873Z,31.60
2018-07-28T06:21:04.906Z,32.00
2018-07-28T06:23:46.951Z,32.20
2018-07-28T06:26:15.733Z,32.40
2018-07-28T06:31:13.324Z,33.00
2018-07-28T06:33:42.329Z,33.20
2018-07-28T06:36:11.305Z,33.20
2018-07-28T06:38:40.393Z,33.30
2018-07-28T06:43:37.559Z,33.10
2018-07-28T06:46:13.822Z,33.20
2018-07-28T06:51:11.209Z,33.30
2018-07-28T06:53:47.698Z,33.20
2018-07-28T06:56:19.187Z,33.20
2018-07-28T06:58:48.173Z,33.00
2018-07-28T07:01:17.160Z,33.10
2018-07-28T07:03:46.390Z,33.00
2018-07-28T07:06:16.382Z,32.70
2018-07-28T07:08:45.484Z,32.50
2018-07-28T07:11:14.337Z,32.50
2018-07-28T07:13:55.369Z,32.40
2018-07-28T07:16:24.286Z,32.40
2018-07-28T07:18:53.380Z,32.20
2018-07-28T07:21:22.580Z,31.90
2018-07-28T07:23:54.981Z,31.80
2018-07-28T07:26:23.950Z,31.70
2018-07-28T07:28:59.251Z,31.50
2018-07-28T07:31:28.181Z,31.40
2018-07-28T07:33:57.113Z,31.40
2018-07-28T07:36:25.911Z,31.40
2018-07-28T07:38:54.938Z,31.30
2018-07-28T07:41:26.076Z,31.30
2018-07-28T07:43:55.307Z,31.20
2018-07-28T07:46:30.105Z,31.20
2018-07-28T07:48:58.987Z,31.20
2018-07-28T07:51:28.271Z,31.10
2018-07-28T07:53:57.537Z,31.20
2018-07-28T07:56:26.579Z,31.10
2018-07-28T07:58:56.024Z,31.00
2018-07-28T08:01:25.305Z,31.00
2018-07-28T08:03:55.508Z,31.20
2018-07-28T08:06:26.557Z,31.30
2018-07-28T08:08:57.136Z,31.50
2018-07-28T08:11:26.320Z,31.90
2018-07-28T08:13:55.290Z,32.30
2018-07-28T08:16:24.729Z,32.70
2018-07-28T08:18:53.748Z,32.80
2018-07-28T08:21:22.785Z,32.80
2018-07-28T08:23:51.825Z,32.90
2018-07-28T08:26:26.917Z,33.00
2018-07-28T08:28:55.967Z,32.90
2018-07-28T08:31:29.539Z,33.40
2018-07-28T08:33:58.569Z,34.00
2018-07-28T08:36:27.417Z,34.60
2018-07-28T08:38:56.354Z,34.90
2018-07-28T08:41:25.522Z,35.40
2018-07-28T08:43:54.384Z,35.50
2018-07-28T08:48:52.903Z,35.60
2018-07-28T08:51:21.783Z,35.90
2018-07-28T08:53:50.996Z,36.70
2018-07-28T08:56:20.144Z,37.10
2018-07-28T09:01:17.734Z,37.30
2018-07-28T09:03:46.601Z,37.80
2018-07-28T09:06:16.851Z,38.20
2018-07-28T09:08:45.656Z,37.90
2018-07-28T09:11:14.506Z,37.80
2018-07-28T09:13:44.636Z,37.60
2018-07-28T09:16:13.657Z,37.60
2018-07-28T09:21:11.207Z,37.80
2018-07-28T09:23:41.580Z,37.70
2018-07-28T09:26:10.550Z,37.50
2018-07-28T09:31:08.356Z,37.30
2018-07-28T09:33:37.402Z,37.10
2018-07-28T09:36:06.528Z,36.90
2018-07-28T09:38:35.509Z,36.80
2018-07-28T09:43:44.495Z,36.60
2018-07-28T09:46:13.599Z,36.60
2018-07-28T09:48:42.449Z,36.50
2018-07-28T09:51:17.839Z,36.60
2018-07-28T09:53:46.567Z,36.40
2018-07-28T09:56:15.509Z,36.30
2018-07-28T09:58:44.461Z,36.20
2018-07-28T10:03:48.275Z,36.10
2018-07-28T10:06:17.277Z,36.10
2018-07-28T10:08:46.508Z,36.00
2018-07-28T10:11:15.341Z,36.10
2018-07-28T10:13:44.235Z,36.10
2018-07-28T10:16:13.259Z,36.20
2018-07-28T10:18:42.561Z,36.30
2018-07-28T10:21:11.619Z,36.40
2018-07-28T10:23:40.646Z,36.60
2018-07-28T10:28:39.208Z,36.80
2018-07-28T10:31:08.414Z,37.20
2018-07-28T10:33:37.297Z,37.20
2018-07-28T10:36:06.928Z,37.30
2018-07-28T10:38:42.093Z,37.40
2018-07-28T10:41:15.389Z,37.50
2018-07-28T10:46:21.933Z,37.00
2018-07-28T10:48:52.150Z,37.00
2018-07-28T10:51:21.336Z,37.00
2018-07-28T10:53:53.761Z,37.00
2018-07-28T10:56:23.026Z,37.20
2018-07-28T10:58:52.052Z,37.40
2018-07-28T11:03:49.224Z,37.60
2018-07-28T11:06:18.494Z,37.90
2018-07-28T11:08:47.411Z,38.00
2018-07-28T11:13:49.393Z,38.00
2018-07-28T11:16:18.261Z,37.30
2018-07-28T11:18:47.336Z,37.70
2018-07-28T11:21:17.487Z,38.30
2018-07-28T11:24:00.612Z,38.50
2018-07-28T11:26:29.808Z,38.70
2018-07-28T11:28:58.770Z,39.10
2018-07-28T11:32:40.705Z,38.70
2018-07-28T11:35:20.521Z,38.90
2018-07-28T11:38:09.822Z,39.10
2018-07-28T11:40:49.975Z,38.90
2018-07-28T11:43:29.825Z,38.50
2018-07-28T11:45:59.004Z,38.10
2018-07-28T11:48:30.938Z,38.10
2018-07-28T11:50:59.987Z,38.00
2018-07-28T11:53:28.944Z,37.50
2018-07-28T11:56:02.590Z,37.50
2018-07-28T11:58:31.473Z,37.30
2018-07-28T12:01:00.543Z,37.10
2018-07-28T12:03:29.759Z,36.90
2018-07-28T12:05:58.661Z,36.50
2018-07-28T12:08:29.074Z,35.80
2018-07-28T12:10:58.242Z,35.50
2018-07-28T12:13:27.232Z,35.00
2018-07-28T12:15:56.276Z,34.60
2018-07-28T12:18:25.251Z,34.30
2018-07-28T12:20:56.227Z,33.60
2018-07-28T12:23:25.250Z,33.60
2018-07-28T12:25:55.492Z,33.60
2018-07-28T12:28:29.814Z,33.40
2018-07-28T12:31:00.153Z,32.80
2018-07-28T12:33:29.381Z,32.70
2018-07-28T12:35:58.295Z,32.70
2018-07-28T12:38:27.321Z,32.60
2018-07-28T12:40:57.586Z,32.60
2018-07-28T12:43:28.100Z,33.00
2018-07-28T12:45:56.936Z,32.50
2018-07-28T12:48:30.072Z,32.30
2018-07-28T12:51:04.142Z,32.60
2018-07-28T12:53:44.148Z,33.00
2018-07-28T12:56:13.290Z,32.90
2018-07-28T12:58:42.399Z,32.90
2018-07-28T13:01:11.512Z,32.80
2018-07-28T13:03:40.395Z,32.90
2018-07-28T13:06:09.283Z,33.00
2018-07-28T13:08:38.355Z,32.80
2018-07-28T13:11:07.330Z,32.90
2018-07-28T13:13:37.924Z,33.20
2018-07-28T13:16:07.454Z,33.10
2018-07-28T13:18:45.780Z,33.50
2018-07-28T13:21:14.773Z,33.80
2018-07-28T13:23:50.761Z,34.10
2018-07-28T13:26:19.659Z,34.00
2018-07-28T13:28:48.482Z,34.60
2018-07-28T13:31:17.367Z,34.30
2018-07-28T13:33:46.532Z,34.90
2018-07-28T13:36:15.538Z,34.60
2018-07-28T13:38:44.564Z,35.00
2018-07-28T13:41:13.569Z,34.70
2018-07-28T13:43:42.452Z,34.40
2018-07-28T13:48:39.562Z,34.70
2018-07-28T13:51:08.672Z,34.70
2018-07-28T13:53:37.560Z,34.90
2018-07-28T13:56:06.553Z,34.80
2018-07-28T13:58:48.097Z,34.60
2018-07-28T14:01:17.036Z,34.10
2018-07-28T14:03:46.096Z,34.40
2018-07-28T14:06:15.156Z,34.50
2018-07-28T14:08:44.128Z,34.50
2018-07-28T14:11:13.118Z,34.70
2018-07-28T14:13:42.021Z,34.80
2018-07-28T14:16:15.132Z,34.80
2018-07-28T14:18:44.559Z,34.80
2018-07-28T14:21:13.531Z,35.20
2018-07-28T14:26:16.674Z,35.50
2018-07-28T14:28:45.745Z,35.10
2018-07-28T15:18:44.655Z,37.70
2018-07-28T15:21:13.219Z,38.30
2018-07-28T15:23:41.926Z,38.10
2018-07-28T15:26:10.943Z,37.90
2018-07-28T15:36:23.707Z,37.30
2018-07-28T15:41:30.892Z,37.50
2018-07-28T15:44:04.859Z,37.80
2018-07-28T15:46:41.054Z,37.90
2018-07-28T15:49:16.017Z,37.70
2018-07-28T15:51:54.003Z,38.20
2018-07-28T15:54:27.333Z,38.50
2018-07-28T15:57:04.084Z,38.40
2018-07-28T15:59:34.700Z,38.30
2018-07-28T16:02:06.849Z,38.10
2018-07-28T16:04:42.553Z,38.80
2018-07-28T16:09:41.877Z,39.20
2018-07-28T16:12:17.417Z,39.50
2018-07-28T16:14:49.679Z,39.50
2018-07-28T16:17:22.694Z,39.40
2018-07-28T16:19:54.438Z,38.70
2018-07-28T16:22:25.377Z,38.10
2018-07-28T16:25:00.493Z,37.70
2018-07-28T16:27:34.325Z,36.30
2018-07-28T16:30:06.619Z,35.10
2018-07-28T16:32:38.117Z,34.00
2018-07-28T16:35:07.845Z,32.80
2018-07-28T16:57:55.645Z,29.50
2018-07-28T17:00:25.428Z,29.20
2018-07-28T17:02:54.545Z,28.90
2018-07-28T17:05:23.261Z,29.20
2018-07-28T17:07:52.202Z,29.30
2018-07-28T17:10:20.930Z,29.40
2018-07-28T17:12:49.791Z,29.40
2018-07-28T17:15:18.432Z,29.30
2018-07-28T17:17:48.071Z,29.20
2018-07-28T17:20:16.838Z,29.10
2018-07-28T17:22:45.561Z,28.90
2018-07-28T17:25:14.164Z,28.80
2018-07-28T17:27:42.852Z,28.60
2018-07-28T17:30:11.622Z,28.60
2018-07-28T17:32:40.338Z,28.40
2018-07-28T17:35:08.941Z,28.30
2018-07-28T17:37:37.803Z,28.00
2018-07-28T17:40:07.581Z,27.80
2018-07-28T17:42:36.332Z,27.70
2018-07-28T17:45:06.227Z,27.50
2018-07-28T17:47:36.251Z,27.20
2018-07-28T17:50:06.441Z,27.00
2018-07-28T17:52:35.242Z,26.50
2018-07-28T17:55:05.397Z,26.70
2018-07-28T17:57:34.390Z,26.90
2018-07-28T18:00:03.465Z,26.80
2018-07-28T18:02:32.502Z,26.70
2018-07-28T18:05:06.322Z,26.70
2018-07-28T18:07:35.099Z,26.60
2018-07-28T18:10:03.965Z,26.50
2018-07-28T18:12:33.062Z,26.50
2018-07-28T18:15:01.727Z,26.40
2018-07-28T18:17:30.780Z,26.40
2018-07-28T18:19:59.440Z,26.20
2018-07-28T18:22:28.063Z,26.20
2018-07-28T18:24:56.741Z,26.00
2018-07-28T18:29:53.638Z,25.80
2018-07-28T18:32:23.683Z,25.80
2018-07-28T18:34:53.068Z,25.70
2018-07-28T18:37:22.812Z,25.60
2018-07-28T18:42:19.714Z,25.50
2018-07-28T18:44:48.435Z,25.50
2018-07-28T18:47:17.391Z,25.40
2018-07-28T18:49:46.096Z,25.30
2018-07-28T18:52:15.093Z,25.20
2018-07-28T18:54:47.724Z,25.20
2018-07-28T18:57:18.562Z,25.10
2018-07-28T19:02:16.589Z,25.00
2018-07-28T19:04:46.853Z,25.00
2018-07-28T19:07:15.926Z,25.00
2018-07-28T19:09:54.079Z,24.90
2018-07-28T19:12:28.096Z,24.80
2018-07-28T19:14:59.342Z,24.60
2018-07-28T19:20:02.065Z,24.40
2018-07-28T19:22:36.233Z,24.40
2018-07-28T19:25:05.478Z,24.30
2018-07-28T19:27:34.523Z,24.30
2018-07-28T19:30:04.613Z,24.20
2018-07-28T19:32:33.659Z,24.20
2018-07-28T19:35:02.642Z,24.10
2018-07-28T19:37:31.675Z,24.00
2018-07-28T19:40:00.525Z,24.00
2018-07-28T19:42:34.544Z,23.90
2018-07-28T19:45:03.802Z,23.80
2018-07-28T19:47:32.819Z,23.70
2018-07-28T19:50:01.690Z,23.70
2018-07-28T19:52:30.691Z,23.60
2018-07-28T19:54:59.923Z,23.60
2018-07-28T19:57:30.363Z,23.50
2018-07-28T20:02:27.806Z,23.40
2018-07-28T20:04:57.007Z,23.40
2018-07-28T20:07:25.837Z,23.30
2018-07-28T20:09:54.600Z,23.30
2018-07-28T20:12:23.486Z,23.10
2018-07-28T20:14:52.172Z,23.10
2018-07-28T20:17:21.017Z,23.00
2018-07-28T20:19:50.479Z,22.90
2018-07-28T20:22:19.132Z,22.80
2018-07-28T20:24:48.914Z,22.80
2018-07-28T20:27:17.702Z,22.80
2018-07-28T20:29:46.310Z,22.70
2018-07-28T20:32:15.276Z,22.70
2018-07-28T20:34:44.084Z,22.60
2018-07-28T20:37:14.111Z,22.60
2018-07-28T20:39:42.816Z,22.40
2018-07-28T20:42:11.455Z,22.30
2018-07-28T20:44:40.081Z,22.30
2018-07-28T20:47:09.757Z,22.20
2018-07-28T20:49:39.121Z,22.20
2018-07-28T20:52:08.391Z,22.10
2018-07-28T20:54:37.248Z,22.10
2018-07-28T20:57:11.349Z,22.10
2018-07-28T20:59:40.083Z,22.10
2018-07-28T21:02:08.770Z,22.00
2018-07-28T21:04:37.619Z,22.00
2018-07-28T21:07:06.500Z,21.90
2018-07-28T21:09:35.188Z,21.90
2018-07-28T21:12:03.915Z,21.90
2018-07-28T21:14:32.801Z,21.80
2018-07-28T21:17:01.535Z,21.70
2018-07-28T21:19:30.162Z,21.70
2018-07-28T21:21:59.003Z,21.50
2018-07-28T21:24:27.635Z,21.50
2018-07-28T21:26:56.516Z,21.40
2018-07-28T21:29:25.397Z,21.40
2018-07-28T21:31:56.406Z,21.30
2018-07-28T21:34:25.058Z,21.20
2018-07-28T21:36:53.969Z,21.20
2018-07-28T21:39:22.810Z,21.10
2018-07-28T21:41:51.554Z,21.10
2018-07-28T21:44:20.198Z,21.00
2018-07-28T21:46:49.658Z,21.00
2018-07-28T21:49:18.465Z,21.00
2018-07-28T21:51:47.306Z,21.00
2018-07-28T21:54:15.985Z,21.00
2018-07-28T21:56:44.836Z,20.90
2018-07-28T21:59:13.744Z,20.90
2018-07-28T22:01:44.179Z,20.80
2018-07-28T22:04:21.618Z,20.70
2018-07-28T22:06:50.546Z,20.60
2018-07-28T22:09:19.291Z,20.50
2018-07-28T22:11:48.044Z,20.50
2018-07-28T22:14:16.840Z,20.60
2018-07-28T22:16:45.811Z,20.50
2018-07-28T22:19:14.808Z,20.50
2018-07-28T22:21:43.659Z,20.40
2018-07-28T22:24:12.502Z,20.40
2018-07-28T22:26:42.701Z,20.30
2018-07-28T22:29:11.466Z,20.30
2018-07-28T22:31:40.466Z,20.10
2018-07-28T22:34:09.313Z,20.10
2018-07-28T22:36:38.363Z,20.00
2018-07-28T22:39:08.631Z,20.00
2018-07-28T22:41:37.457Z,20.00
2018-07-28T22:46:34.787Z,19.90
2018-07-28T22:49:03.533Z,19.90
2018-07-28T22:51:32.433Z,19.80
2018-07-28T22:54:01.298Z,19.70
2018-07-28T22:56:30.135Z,19.70
2018-07-28T22:58:59.108Z,19.70
2018-07-28T23:01:28.078Z,19.60
2018-07-28T23:03:57.003Z,19.50
2018-07-28T23:06:25.779Z,19.50
2018-07-28T23:08:54.642Z,19.50
2018-07-28T23:11:23.445Z,19.40
2018-07-28T23:13:52.496Z,19.40
2018-07-28T23:16:21.291Z,19.30
2018-07-28T23:18:50.075Z,19.20
2018-07-28T23:21:18.987Z,19.20
2018-07-28T23:23:47.757Z,19.10
2018-07-28T23:26:16.706Z,19.00
2018-07-28T23:28:45.707Z,19.00
2018-07-28T23:31:15.727Z,19.00
2018-07-28T23:33:44.615Z,18.90
2018-07-28T23:36:13.438Z,18.90
2018-07-28T23:38:42.311Z,18.80
2018-07-28T23:41:11.271Z,18.70
2018-07-28T23:43:40.098Z,18.70
2018-07-28T23:46:09.156Z,18.70
2018-07-28T23:48:37.909Z,18.60
2018-07-28T23:51:06.942Z,18.60
2018-07-28T23:53:35.752Z,18.60
2018-07-28T23:56:04.797Z,18.60
2018-07-28T23:58:33.643Z,18.50
